createdAt,value
2018-10-01T00:00:59.806Z,73.50
2018-10-01T00:03:28.631Z,73.44
2018-10-01T00:05:57.489Z,73.59
2018-10-01T00:08:26.294Z,73.64
2018-10-01T00:10:55.186Z,73.33
2018-10-01T00:13:23.951Z,74.36
2018-10-01T00:15:53.069Z,73.75
2018-10-01T00:18:22.946Z,74.30
2018-10-01T00:20:57.048Z,74.71
2018-10-01T00:23:25.957Z,74.50
2018-10-01T00:25:55.889Z,74.34
2018-10-01T00:28:24.955Z,74.17
2018-10-01T00:30:54.024Z,74.13
2018-10-01T00:33:22.707Z,74.65
2018-10-01T00:35:51.464Z,74.37
2018-10-01T00:38:20.316Z,75.10
2018-10-01T00:40:49.107Z,74.78
2018-10-01T00:43:18.175Z,75.21
2018-10-01T00:45:47.112Z,75.13
2018-10-01T00:48:16.142Z,75.41
2018-10-01T00:50:44.990Z,75.21
2018-10-01T00:53:13.770Z,75.25
2018-10-01T00:55:42.758Z,75.38
2018-10-01T00:58:11.660Z,75.57
2018-10-01T01:00:40.507Z,75.87
2018-10-01T01:03:09.280Z,75.25
2018-10-01T01:05:38.359Z,74.99
2018-10-01T01:08:06.991Z,75.05
2018-10-01T01:10:35.771Z,75.41
2018-10-01T01:13:04.787Z,75.61
2018-10-01T01:15:34.916Z,75.55
2018-10-01T01:18:03.624Z,75.65
2018-10-01T01:20:32.668Z,75.17
2018-10-01T01:23:01.695Z,75.63
2018-10-01T01:25:30.432Z,75.29
2018-10-01T01:27:59.343Z,75.42
2018-10-01T01:30:28.053Z,75.22
2018-10-01T01:32:56.740Z,75.64
2018-10-01T01:35:25.559Z,75.34
2018-10-01T01:37:54.398Z,75.38
2018-10-01T01:40:23.391Z,75.58
2018-10-01T01:42:52.785Z,75.32
2018-10-01T01:45:21.722Z,75.33
2018-10-01T01:47:50.470Z,76.18
2018-10-01T01:50:19.164Z,76.22
2018-10-01T01:52:48.091Z,76.27
2018-10-01T01:55:16.975Z,76.50
2018-10-01T01:57:46.009Z,76.59
2018-10-01T02:00:15.076Z,76.08
2018-10-01T02:02:44.030Z,77.10
2018-10-01T02:05:13.186Z,76.62
2018-10-01T02:07:42.028Z,77.14
2018-10-01T02:10:10.903Z,77.17
2018-10-01T02:12:39.592Z,76.76
2018-10-01T02:15:08.585Z,76.87
2018-10-01T02:17:37.373Z,76.61
2018-10-01T02:20:06.369Z,77.05
2018-10-01T02:22:35.187Z,76.62
2018-10-01T02:25:04.178Z,77.25
2018-10-01T02:27:32.958Z,77.00
2018-10-01T02:30:02.232Z,77.11
2018-10-01T02:32:31.100Z,76.89
2018-10-01T02:35:00.131Z,76.95
2018-10-01T02:37:29.216Z,77.06
2018-10-01T02:39:59.296Z,76.83
2018-10-01T02:42:28.611Z,76.93
2018-10-01T02:44:57.809Z,77.06
2018-10-01T02:47:26.858Z,77.10
2018-10-01T02:49:56.019Z,77.38
2018-10-01T02:52:30.138Z,77.29
2018-10-01T02:54:59.342Z,77.13
2018-10-01T02:57:28.167Z,77.77
2018-10-01T02:59:57.383Z,77.60
2018-10-01T03:02:26.326Z,77.54
2018-10-01T03:04:55.198Z,77.47
2018-10-01T03:07:24.428Z,77.29
2018-10-01T03:09:53.282Z,77.40
2018-10-01T03:12:22.224Z,77.87
2018-10-01T03:14:51.109Z,77.36
2018-10-01T03:17:20.104Z,77.26
2018-10-01T03:19:49.448Z,77.86
2018-10-01T03:22:18.681Z,77.41
2018-10-01T03:24:47.511Z,77.62
2018-10-01T03:27:16.792Z,77.70
2018-10-01T03:29:46.013Z,77.99
2018-10-01T03:32:14.868Z,77.91
2018-10-01T03:34:43.943Z,78.49
2018-10-01T03:37:13.068Z,78.60
2018-10-01T03:39:42.030Z,78.54
2018-10-01T03:42:10.975Z,78.93
2018-10-01T03:44:40.120Z,78.45
2018-10-01T03:47:09.156Z,78.59
2018-10-01T03:49:38.652Z,78.81
2018-10-01T03:52:13.938Z,79.07
2018-10-01T03:54:43.128Z,78.77
2018-10-01T03:57:12.589Z,78.46
2018-10-01T03:59:41.303Z,78.82
2018-10-01T04:02:10.319Z,78.83
2018-10-01T04:04:39.312Z,78.68
2018-10-01T04:07:08.681Z,79.35
2018-10-01T04:09:37.841Z,78.55
2018-10-01T04:12:06.944Z,78.77
2018-10-01T04:14:35.904Z,78.55
2018-10-01T04:17:04.915Z,78.91
2018-10-01T04:19:34.220Z,79.15
2018-10-01T04:22:03.204Z,78.62
2018-10-01T04:24:32.051Z,78.74
2018-10-01T04:27:01.088Z,78.59
2018-10-01T04:29:30.064Z,78.76
2018-10-01T04:31:58.957Z,79.30
2018-10-01T04:34:27.822Z,79.20
2018-10-01T04:36:56.812Z,79.26
2018-10-01T04:39:25.593Z,79.37
2018-10-01T04:41:55.796Z,78.78
2018-10-01T04:44:24.982Z,78.75
2018-10-01T04:46:53.923Z,79.00
2018-10-01T04:49:22.737Z,78.87
2018-10-01T04:51:51.643Z,78.84
2018-10-01T04:54:20.703Z,79.65
2018-10-01T04:56:49.737Z,79.42
2018-10-01T04:59:18.538Z,78.88
2018-10-01T05:01:47.725Z,79.49
2018-10-01T05:04:16.819Z,79.42
2018-10-01T05:06:46.268Z,80.40
2018-10-01T05:09:15.222Z,80.48
2018-10-01T05:11:43.988Z,78.67
2018-10-01T05:14:12.945Z,75.04
2018-10-01T05:16:41.799Z,75.55
2018-10-01T05:19:10.585Z,75.05
2018-10-01T05:21:39.674Z,75.95
2018-10-01T05:24:08.705Z,76.84
2018-10-01T05:26:37.598Z,77.17
2018-10-01T05:29:06.751Z,77.80
2018-10-01T05:31:35.920Z,77.88
2018-10-01T05:34:04.959Z,77.84
2018-10-01T05:36:34.205Z,77.86
2018-10-01T05:39:03.253Z,77.65
2018-10-01T05:41:32.298Z,78.03
2018-10-01T05:44:01.285Z,74.98
2018-10-01T05:46:30.564Z,76.17
2018-10-01T05:48:59.705Z,76.26
2018-10-01T05:51:28.360Z,76.61
2018-10-01T05:53:57.279Z,77.00
2018-10-01T05:56:26.008Z,76.76
2018-10-01T05:58:54.993Z,77.19
2018-10-01T06:01:24.026Z,77.11
2018-10-01T06:03:53.016Z,76.71
2018-10-01T06:06:21.984Z,76.70
2018-10-01T06:08:50.880Z,76.16
2018-10-01T06:11:20.405Z,74.29
2018-10-01T06:13:49.353Z,68.70
2018-10-01T06:16:18.268Z,65.53
2018-10-01T06:18:47.327Z,62.82
2018-10-01T06:21:16.191Z,60.78
2018-10-01T06:23:45.192Z,59.63
2018-10-01T06:26:14.115Z,58.86
2018-10-01T06:28:42.936Z,56.77
2018-10-01T06:31:11.610Z,57.44
2018-10-01T06:33:40.854Z,55.42
2018-10-01T06:36:10.002Z,54.64
2018-10-01T06:38:38.838Z,52.41
2018-10-01T06:41:07.820Z,52.85
2018-10-01T06:43:36.837Z,50.33
2018-10-01T06:46:06.353Z,53.15
2018-10-01T06:48:35.427Z,52.33
2018-10-01T06:51:04.549Z,53.31
2018-10-01T06:53:33.848Z,53.96
2018-10-01T06:56:02.855Z,55.82
2018-10-01T06:58:31.997Z,53.45
2018-10-01T07:01:01.338Z,55.20
2018-10-01T07:03:30.631Z,53.76
2018-10-01T07:06:00.087Z,54.28
2018-10-01T07:08:29.158Z,55.13
2018-10-01T07:10:58.232Z,54.16
2018-10-01T07:13:27.356Z,54.29
2018-10-01T07:15:56.428Z,53.29
2018-10-01T07:18:25.322Z,52.67
2018-10-01T07:20:54.510Z,52.88
2018-10-01T07:23:23.706Z,52.61
2018-10-01T07:25:52.647Z,52.37
2018-10-01T07:28:21.845Z,53.10
2018-10-01T07:30:50.777Z,53.71
2018-10-01T07:33:19.794Z,53.29
2018-10-01T07:35:49.338Z,52.91
2018-10-01T07:38:18.573Z,51.66
2018-10-01T07:40:47.490Z,52.46
2018-10-01T07:43:16.140Z,52.15
2018-10-01T07:45:45.149Z,50.50
2018-10-01T07:48:13.950Z,49.43
2018-10-01T07:50:43.071Z,49.43
2018-10-01T07:53:12.078Z,50.61
2018-10-01T07:55:41.128Z,50.77
2018-10-01T07:58:12.881Z,51.26
2018-10-01T08:00:41.757Z,50.07
2018-10-01T08:03:10.596Z,49.32
2018-10-01T08:05:39.669Z,48.26
2018-10-01T08:08:08.549Z,47.47
2018-10-01T08:10:37.736Z,47.17
2018-10-01T08:13:06.548Z,46.20
2018-10-01T08:15:35.810Z,45.84
2018-10-01T08:18:04.860Z,46.62
2018-10-01T08:20:33.555Z,46.53
2018-10-01T08:23:02.486Z,46.27
2018-10-01T08:25:31.274Z,46.55
2018-10-01T08:28:00.328Z,46.12
2018-10-01T08:30:29.311Z,45.04
2018-10-01T08:32:58.270Z,44.76
2018-10-01T08:35:27.160Z,43.80
2018-10-01T08:37:56.056Z,43.99
2018-10-01T08:40:24.976Z,44.36
2018-10-01T08:42:54.046Z,45.26
2018-10-01T08:45:23.043Z,45.81
2018-10-01T08:47:52.251Z,43.97
2018-10-01T08:50:26.383Z,43.50
2018-10-01T08:53:00.552Z,43.01
2018-10-01T08:55:29.491Z,43.96
2018-10-01T08:57:58.349Z,42.29
2018-10-01T09:00:27.251Z,43.19
2018-10-01T09:02:57.035Z,42.70
2018-10-01T09:05:26.015Z,42.67
2018-10-01T09:07:55.104Z,42.12
2018-10-01T09:10:24.274Z,41.44
2018-10-01T09:12:52.995Z,41.11
2018-10-01T09:15:21.910Z,42.03
2018-10-01T09:17:50.801Z,42.43
2018-10-01T09:20:20.147Z,42.29
2018-10-01T09:22:49.308Z,43.08
2018-10-01T09:25:17.955Z,44.46
2018-10-01T09:27:46.856Z,44.18
2018-10-01T09:30:16.858Z,44.02
2018-10-01T09:32:46.544Z,42.74
2018-10-01T09:35:15.719Z,42.06
2018-10-01T09:37:44.812Z,40.92
2018-10-01T09:40:13.824Z,41.22
2018-10-01T09:42:42.788Z,40.75
2018-10-01T09:46:15.083Z,40.90
2018-10-01T09:48:44.044Z,39.64
2018-10-01T09:51:13.061Z,41.42
2018-10-01T09:53:42.110Z,40.81
2018-10-01T09:56:11.078Z,39.74
2018-10-01T09:58:40.388Z,39.73
2018-10-01T10:01:13.856Z,39.34
2018-10-01T10:03:42.871Z,39.57
2018-10-01T10:06:11.893Z,38.93
2018-10-01T10:08:40.869Z,40.04
2018-10-01T10:11:09.994Z,37.57
2018-10-01T10:13:38.963Z,35.76
2018-10-01T10:16:08.073Z,36.91
2018-10-01T10:18:36.872Z,39.48
2018-10-01T10:21:05.587Z,40.00
2018-10-01T10:23:34.665Z,40.63
2018-10-01T10:26:03.575Z,40.10
2018-10-01T10:28:32.624Z,40.80
2018-10-01T10:31:01.564Z,40.86
2018-10-01T10:33:30.398Z,41.54
2018-10-01T10:35:59.075Z,42.53
2018-10-01T10:38:28.156Z,41.58
2018-10-01T10:40:57.150Z,40.99
2018-10-01T10:43:26.293Z,40.88
2018-10-01T10:45:55.113Z,40.09
2018-10-01T10:48:24.273Z,39.92
2018-10-01T10:50:53.204Z,40.88
2018-10-01T10:53:22.014Z,41.11
2018-10-01T10:55:50.889Z,40.36
2018-10-01T10:58:19.788Z,39.06
2018-10-01T11:00:48.665Z,38.61
2018-10-01T11:03:17.860Z,37.95
2018-10-01T11:05:46.727Z,38.26
2018-10-01T11:08:15.499Z,39.46
2018-10-01T11:10:44.484Z,40.12
2018-10-01T11:13:13.522Z,40.34
2018-10-01T11:15:42.517Z,40.65
2018-10-01T11:18:11.963Z,40.40
2018-10-01T11:20:40.984Z,40.85
2018-10-01T11:23:09.996Z,39.46
2018-10-01T11:25:39.004Z,39.28
2018-10-01T11:28:07.859Z,39.57
2018-10-01T11:30:36.761Z,39.01
2018-10-01T11:33:05.583Z,37.34
2018-10-01T11:35:34.580Z,36.41
2018-10-01T11:38:03.596Z,37.86
2018-10-01T11:40:32.623Z,37.22
2018-10-01T11:43:01.835Z,37.55
2018-10-01T11:45:31.257Z,37.06
2018-10-01T11:48:00.101Z,38.33
2018-10-01T11:50:29.277Z,38.39
2018-10-01T11:52:58.297Z,37.45
2018-10-01T11:55:30.270Z,37.94
2018-10-01T11:57:59.315Z,38.03
2018-10-01T12:00:28.247Z,38.45
2018-10-01T12:02:57.319Z,38.03
2018-10-01T12:05:26.506Z,37.91
2018-10-01T12:07:55.498Z,37.36
2018-10-01T12:10:24.665Z,36.97
2018-10-01T12:12:53.507Z,37.49
2018-10-01T12:15:22.457Z,37.39
2018-10-01T12:17:51.618Z,37.06
2018-10-01T12:20:20.549Z,37.50
2018-10-01T12:22:49.807Z,37.36
2018-10-01T12:25:19.205Z,36.94
2018-10-01T12:27:48.228Z,36.68
2018-10-01T12:30:17.567Z,36.93
2018-10-01T12:32:46.778Z,37.66
2018-10-01T12:35:15.779Z,36.32
2018-10-01T12:37:44.803Z,37.45
2018-10-01T12:40:13.798Z,35.56
2018-10-01T12:42:42.760Z,35.80
2018-10-01T12:45:11.681Z,35.52
2018-10-01T12:47:40.615Z,36.42
2018-10-01T12:50:09.284Z,36.02
2018-10-01T12:52:38.249Z,36.69
2018-10-01T12:55:06.945Z,36.31
2018-10-01T12:57:35.744Z,36.43
2018-10-01T13:00:04.663Z,37.74
2018-10-01T13:02:33.591Z,38.01
2018-10-01T13:05:02.729Z,37.51
2018-10-01T13:07:31.725Z,38.23
2018-10-01T13:10:00.520Z,38.23
2018-10-01T13:12:29.596Z,39.22
2018-10-01T13:14:58.635Z,38.99
2018-10-01T13:17:27.595Z,37.73
2018-10-01T13:19:56.446Z,37.71
2018-10-01T13:22:25.398Z,36.79
2018-10-01T13:24:54.290Z,37.58
2018-10-01T13:27:23.046Z,38.87
2018-10-01T13:29:51.868Z,39.06
2018-10-01T13:32:20.687Z,38.77
2018-10-01T13:34:49.351Z,37.43
2018-10-01T13:37:18.285Z,37.52
2018-10-01T13:39:47.169Z,37.92
2018-10-01T13:42:15.971Z,38.14
2018-10-01T13:44:45.133Z,38.85
2018-10-01T13:47:14.527Z,39.35
2018-10-01T13:49:43.571Z,39.83
2018-10-01T13:52:12.697Z,40.06
2018-10-01T13:54:42.282Z,40.04
2018-10-01T13:57:11.452Z,39.89
2018-10-01T13:59:40.140Z,39.95
2018-10-01T14:02:09.573Z,39.17
2018-10-01T14:04:38.503Z,39.15
2018-10-01T14:07:07.749Z,35.83
2018-10-01T14:09:36.837Z,34.04
2018-10-01T14:12:05.590Z,33.90
2018-10-01T14:14:34.801Z,35.04
2018-10-01T14:17:03.839Z,35.18
2018-10-01T14:19:32.996Z,35.13
2018-10-01T14:22:02.292Z,36.53
2018-10-01T14:24:31.266Z,37.57
2018-10-01T14:27:00.354Z,37.15
2018-10-01T14:29:29.271Z,37.56
2018-10-01T14:31:58.136Z,37.91
2018-10-01T14:34:27.465Z,38.09
2018-10-01T14:36:56.402Z,38.67
2018-10-01T14:39:25.567Z,37.69
2018-10-01T14:41:54.657Z,38.53
2018-10-01T14:44:23.624Z,38.46
2018-10-01T14:46:52.540Z,38.68
2018-10-01T14:49:21.227Z,39.46
2018-10-01T14:51:50.156Z,39.83
2018-10-01T14:54:19.306Z,40.06
2018-10-01T14:56:48.234Z,40.06
2018-10-01T14:59:17.231Z,40.51
2018-10-01T15:01:46.171Z,41.23
2018-10-01T15:04:15.141Z,41.81
2018-10-01T15:06:44.150Z,41.85
2018-10-01T15:09:13.237Z,41.77
2018-10-01T15:11:42.070Z,42.14
2018-10-01T15:14:11.037Z,42.19
2018-10-01T15:16:40.330Z,42.43
2018-10-01T15:19:09.498Z,42.67
2018-10-01T15:21:38.558Z,43.35
2018-10-01T15:24:07.703Z,44.00
2018-10-01T15:26:36.685Z,43.91
2018-10-01T15:29:05.730Z,44.55
2018-10-01T15:31:34.948Z,45.11
2018-10-01T15:34:03.951Z,45.22
2018-10-01T15:36:33.122Z,45.81
2018-10-01T15:39:01.974Z,46.02
2018-10-01T15:41:31.415Z,46.74
2018-10-01T15:44:00.524Z,47.16
2018-10-01T15:46:29.453Z,47.53
2018-10-01T15:48:58.878Z,47.77
2018-10-01T15:51:27.883Z,48.28
2018-10-01T15:53:57.152Z,48.40
2018-10-01T15:56:26.396Z,48.77
2018-10-01T15:58:55.405Z,49.46
2018-10-01T16:01:24.479Z,49.78
2018-10-01T16:03:53.463Z,50.40
2018-10-01T16:06:22.359Z,50.48
2018-10-01T16:08:51.781Z,50.58
2018-10-01T16:11:20.637Z,50.92
2018-10-01T16:13:49.506Z,51.81
2018-10-01T16:16:18.717Z,52.09
2018-10-01T16:18:47.632Z,52.72
2018-10-01T16:21:16.311Z,52.85
2018-10-01T16:23:45.269Z,53.24
2018-10-01T16:26:14.333Z,53.99
2018-10-01T16:28:43.700Z,54.10
2018-10-01T16:31:13.240Z,54.71
2018-10-01T16:33:42.234Z,55.04
2018-10-01T16:36:11.281Z,55.31
2018-10-01T16:38:40.630Z,55.62
2018-10-01T16:41:09.788Z,55.87
2018-10-01T16:43:39.251Z,56.59
2018-10-01T16:46:08.349Z,57.15
2018-10-01T16:48:37.879Z,57.44
2018-10-01T16:51:06.719Z,57.06
2018-10-01T16:53:35.827Z,57.78
2018-10-01T16:56:05.263Z,58.44
2018-10-01T16:58:34.514Z,58.42
2018-10-01T17:01:03.513Z,58.51
2018-10-01T17:03:32.760Z,58.55
2018-10-01T17:06:01.794Z,59.98
2018-10-01T17:08:31.453Z,60.46
2018-10-01T17:11:01.111Z,60.13
2018-10-01T17:13:30.593Z,61.16
2018-10-01T17:15:59.843Z,60.18
2018-10-01T17:18:28.710Z,60.92
2018-10-01T17:20:57.608Z,61.10
2018-10-01T17:23:26.719Z,60.81
2018-10-01T17:25:56.090Z,61.04
2018-10-01T17:28:25.475Z,61.39
2018-10-01T17:30:54.283Z,61.29
2018-10-01T17:33:23.483Z,61.71
2018-10-01T17:35:52.876Z,62.29
2018-10-01T17:38:22.003Z,62.34
2018-10-01T17:40:51.197Z,62.38
2018-10-01T17:43:19.979Z,63.06
2018-10-01T17:45:49.048Z,62.95
2018-10-01T17:48:18.430Z,63.25
2018-10-01T17:50:47.658Z,63.36
2018-10-01T17:53:16.870Z,63.66
2018-10-01T17:55:45.977Z,64.16
2018-10-01T18:01:57.503Z,64.07
2018-10-01T18:04:26.972Z,64.33
2018-10-01T18:06:56.113Z,65.04
2018-10-01T18:09:25.335Z,65.67
2018-10-01T18:11:54.462Z,65.70
2018-10-01T18:14:23.992Z,65.72
2018-10-01T18:16:53.367Z,65.62
2018-10-01T18:19:22.515Z,66.68
2018-10-01T18:21:51.830Z,66.37
2018-10-01T18:24:21.324Z,66.46
2018-10-01T18:26:51.046Z,66.06
2018-10-01T18:29:23.628Z,67.23
2018-10-01T18:31:54.360Z,66.08
2018-10-01T18:34:23.406Z,66.46
2018-10-01T18:37:00.030Z,66.41
2018-10-01T18:39:31.864Z,66.46
2018-10-01T18:42:01.113Z,66.72
2018-10-01T18:44:33.569Z,67.38
2018-10-01T18:47:07.336Z,67.86
2018-10-01T18:49:45.029Z,67.27
2018-10-01T18:52:20.309Z,67.59
2018-10-01T18:54:52.746Z,67.69
2018-10-01T18:57:29.478Z,67.93
2018-10-01T19:00:00.186Z,69.10
2018-10-01T19:02:37.427Z,68.39
2018-10-01T19:05:10.496Z,68.46
2018-10-01T19:07:46.480Z,69.04
2018-10-01T19:10:17.344Z,69.41
2018-10-01T19:12:49.744Z,68.57
2018-10-01T19:15:20.429Z,68.27
2018-10-01T19:17:51.281Z,68.72
2018-10-01T19:20:20.773Z,68.76
2018-10-01T19:22:50.632Z,69.98
2018-10-01T19:25:20.092Z,69.76
2018-10-01T19:27:58.919Z,69.93
2018-10-01T19:30:34.186Z,69.28
2018-10-01T19:33:08.771Z,69.97
2018-10-01T19:35:45.654Z,69.49
2018-10-01T19:38:18.640Z,69.91
2018-10-01T19:40:51.598Z,70.29
2018-10-01T19:43:24.766Z,70.56
2018-10-01T19:45:59.263Z,70.60
2018-10-01T19:48:31.828Z,70.33
2018-10-01T19:51:16.477Z,70.13
2018-10-01T19:53:46.993Z,70.30
2018-10-01T19:56:16.979Z,70.59
2018-10-01T19:58:46.388Z,70.41
2018-10-01T20:01:15.903Z,70.57
2018-10-01T20:03:45.249Z,71.47
2018-10-01T20:06:14.414Z,71.48
2018-10-01T20:08:43.539Z,72.05
2018-10-01T20:11:12.387Z,71.15
2018-10-01T20:13:41.267Z,71.21
2018-10-01T20:16:10.379Z,70.95
2018-10-01T20:18:39.627Z,71.29
2018-10-01T20:21:08.788Z,71.39
2018-10-01T20:23:37.900Z,70.99
2018-10-01T20:26:06.767Z,71.17
2018-10-01T20:28:35.794Z,71.02
2018-10-01T20:31:04.687Z,70.75
2018-10-01T20:33:33.792Z,70.90
2018-10-01T20:36:02.762Z,70.88
2018-10-01T20:38:31.774Z,71.24
2018-10-01T20:41:00.900Z,70.87
2018-10-01T20:43:29.980Z,71.33
2018-10-01T20:45:58.965Z,71.29
2018-10-01T20:48:27.864Z,71.65
2018-10-01T20:50:56.721Z,72.65
2018-10-01T20:53:25.471Z,71.87
2018-10-01T20:55:54.944Z,71.98
2018-10-01T20:58:23.727Z,72.46
2018-10-01T21:00:52.851Z,71.93
2018-10-01T21:03:21.938Z,73.52
2018-10-01T21:05:50.914Z,72.34
2018-10-01T21:08:19.769Z,72.23
2018-10-01T21:10:48.696Z,72.08
2018-10-01T21:13:17.561Z,71.96
2018-10-01T21:15:46.761Z,71.87
2018-10-01T21:18:15.590Z,72.60
2018-10-01T21:20:44.538Z,72.29
2018-10-01T21:23:13.288Z,72.98
2018-10-01T21:25:42.409Z,72.57
2018-10-01T21:28:11.356Z,72.81
2018-10-01T21:30:40.524Z,72.78
2018-10-01T21:33:09.900Z,73.02
2018-10-01T21:35:39.361Z,73.27
2018-10-01T21:38:08.549Z,73.59
2018-10-01T21:40:37.514Z,73.53
2018-10-01T21:43:07.770Z,73.34
2018-10-01T21:45:36.651Z,73.43
2018-10-01T21:48:06.615Z,74.11
2018-10-01T21:50:35.539Z,73.98
2018-10-01T21:53:04.618Z,73.39
2018-10-01T21:55:33.607Z,73.53
2018-10-01T21:58:02.576Z,73.64
2018-10-01T22:00:36.818Z,73.90
2018-10-01T22:03:05.964Z,73.58
2018-10-01T22:05:35.131Z,74.01
2018-10-01T22:08:04.136Z,74.02
2018-10-01T22:10:33.098Z,73.62
2018-10-01T22:13:02.200Z,74.22
2018-10-01T22:15:36.373Z,74.27
2018-10-01T22:18:05.557Z,73.77
2018-10-01T22:20:34.520Z,74.41
2018-10-01T22:23:03.417Z,74.17
2018-10-01T22:25:32.298Z,73.88
2018-10-01T22:28:01.343Z,74.36
2018-10-01T22:30:30.365Z,73.97
2018-10-01T22:32:59.465Z,74.24
2018-10-01T22:35:28.577Z,74.00
2018-10-01T22:37:57.558Z,74.19
2018-10-01T22:40:26.315Z,74.63
2018-10-01T22:42:55.653Z,74.45
2018-10-01T22:45:24.751Z,74.54
2018-10-01T22:47:53.850Z,74.65
2018-10-01T22:50:22.739Z,74.54
2018-10-01T22:52:51.624Z,74.34
2018-10-01T22:55:20.291Z,74.29
2018-10-01T22:57:49.662Z,75.09
2018-10-01T23:00:18.529Z,75.12
2018-10-01T23:02:47.662Z,75.48
2018-10-01T23:05:16.703Z,75.27
2018-10-01T23:07:45.782Z,74.94
2018-10-01T23:10:14.514Z,75.24
2018-10-01T23:12:43.353Z,74.93
2018-10-01T23:15:12.513Z,74.96
2018-10-01T23:17:41.537Z,74.79
2018-10-01T23:20:10.361Z,75.20
2018-10-01T23:22:39.018Z,75.09
2018-10-01T23:25:08.243Z,75.29
2018-10-01T23:27:37.066Z,74.67
2018-10-01T23:30:06.031Z,74.95
2018-10-01T23:32:35.219Z,74.52
2018-10-01T23:35:04.162Z,74.86
2018-10-01T23:37:33.233Z,74.35
2018-10-01T23:40:02.149Z,74.33
2018-10-01T23:42:31.088Z,74.40
2018-10-01T23:45:00.020Z,74.05
2018-10-01T23:47:28.817Z,74.27
2018-10-01T23:49:57.845Z,73.57
2018-10-01T23:52:26.760Z,73.70
2018-10-01T23:54:55.873Z,73.69
2018-10-01T23:57:24.714Z,74.00
2018-10-01T23:59:53.696Z,73.97
